sensor_id;sensor_type;location;lat;lon;timestamp;temperature;humidity
16513;DHT22;8369;48.030;11.598;2023-03-11T00:01:23;3.00;99.90
16513;DHT22;8369;48.030;11.598;2023-03-11T00:03:57;3.00;99.90
16513;DHT22;8369;48.030;11.598;2023-03-11T00:06:33;3.00;99.90
16513;DHT22;8369;48.030;11.598;2023-03-11T00:08:59;3.00;99.90
16513;DHT22;8369;48.030;11.598;2023-03-11T00:11:28;3.00;99.90
16513;DHT22;8369;48.030;11.598;2023-03-11T00:13:56;3.10;99.90
16513;DHT22;8369;48.030;11.598;2023-03-11T00:16:25;3.00;99.90
16513;DHT22;8369;48.030;11.598;2023-03-11T00:18:51;3.00;99.90
16513;DHT22;8369;48.030;11.598;2023-03-11T00:21:21;3.10;99.90
16513;DHT22;8369;48.030;11.598;2023-03-11T00:23:49;3.00;99.90
16513;DHT22;8369;48.030;11.598;2023-03-11T00:26:24;3.10;99.90
16513;DHT22;8369;48.030;11.598;2023-03-11T00:28:56;3.10;99.90
16513;DHT22;8369;48.030;11.598;2023-03-11T00:31:22;3.10;99.90
16513;DHT22;8369;48.030;11.598;2023-03-11T00:34:13;2.90;99.90
16513;DHT22;8369;48.030;11.598;2023-03-11T00:36:53;2.90;99.90
16513;DHT22;8369;48.030;11.598;2023-03-11T00:39:25;2.90;99.90
16513;DHT22;8369;48.030;11.598;2023-03-11T00:42:26;2.90;99.90
16513;DHT22;8369;48.030;11.598;2023-03-11T00:44:54;2.80;99.90
16513;DHT22;8369;48.030;11.598;2023-03-11T00:47:22;2.80;99.90
16513;DHT22;8369;48.030;11.598;2023-03-11T00:49:56;2.80;99.90
16513;DHT22;8369;48.030;11.598;2023-03-11T00:52:38;2.70;99.90
16513;DHT22;8369;48.030;11.598;2023-03-11T00:55:26;2.70;99.90
16513;DHT22;8369;48.030;11.598;2023-03-11T00:57:54;2.80;99.90
16513;DHT22;8369;48.030;11.598;2023-03-11T01:01:10;2.70;99.90
16513;DHT22;8369;48.030;11.598;2023-03-11T01:03:51;2.70;99.90
16513;DHT22;8369;48.030;11.598;2023-03-11T01:06:30;2.80;99.90
16513;DHT22;8369;48.030;11.598;2023-03-11T01:09:25;2.80;99.90
16513;DHT22;8369;48.030;11.598;2023-03-11T01:11:52;2.90;99.90
16513;DHT22;8369;48.030;11.598;2023-03-11T01:14:43;2.80;99.90
16513;DHT22;8369;48.030;11.598;2023-03-11T01:17:41;2.90;99.90
16513;DHT22;8369;48.030;11.598;2023-03-11T01:20:29;2.80;99.90
16513;DHT22;8369;48.030;11.598;2023-03-11T01:23:11;2.80;99.90
16513;DHT22;8369;48.030;11.598;2023-03-11T01:28:44;2.80;99.90
16513;DHT22;8369;48.030;11.598;2023-03-11T01:31:21;2.80;99.90
16513;DHT22;8369;48.030;11.598;2023-03-11T01:33:58;2.70;99.90
16513;DHT22;8369;48.030;11.598;2023-03-11T01:40:58;2.70;99.90
16513;DHT22;8369;48.030;11.598;2023-03-11T01:49:16;2.80;99.90
16513;DHT22;8369;48.030;11.598;2023-03-11T01:51:47;2.80;99.90
16513;DHT22;8369;48.030;11.598;2023-03-11T01:54:29;3.00;99.90
16513;DHT22;8369;48.030;11.598;2023-03-11T02:00:16;2.80;99.90
16513;DHT22;8369;48.030;11.598;2023-03-11T02:02:50;2.90;99.90
16513;DHT22;8369;48.030;11.598;2023-03-11T02:05:41;2.80;99.90
16513;DHT22;8369;48.030;11.598;2023-03-11T02:08:25;2.80;99.90
16513;DHT22;8369;48.030;11.598;2023-03-11T02:11:11;2.80;99.90
16513;DHT22;8369;48.030;11.598;2023-03-11T02:13:51;2.90;99.90
16513;DHT22;8369;48.030;11.598;2023-03-11T02:16:19;2.90;99.90
16513;DHT22;8369;48.030;11.598;2023-03-11T02:18:47;2.80;99.90
16513;DHT22;8369;48.030;11.598;2023-03-11T02:21:31;2.80;99.90
16513;DHT22;8369;48.030;11.598;2023-03-11T02:24:22;2.80;99.90
16513;DHT22;8369;48.030;11.598;2023-03-11T02:27:02;2.80;99.90
16513;DHT22;8369;48.030;11.598;2023-03-11T02:29:51;2.80;99.90
16513;DHT22;8369;48.030;11.598;2023-03-11T02:32:25;2.70;99.90
16513;DHT22;8369;48.030;11.598;2023-03-11T02:35:16;2.70;99.90
16513;DHT22;8369;48.030;11.598;2023-03-11T02:37:52;2.80;99.90
16513;DHT22;8369;48.030;11.598;2023-03-11T02:41:00;2.80;99.90
16513;DHT22;8369;48.030;11.598;2023-03-11T02:43:47;2.80;99.90
16513;DHT22;8369;48.030;11.598;2023-03-11T02:46:29;2.70;99.90
16513;DHT22;8369;48.030;11.598;2023-03-11T02:48:56;2.70;99.90
16513;DHT22;8369;48.030;11.598;2023-03-11T02:51:45;2.60;99.90
16513;DHT22;8369;48.030;11.598;2023-03-11T02:54:21;2.60;99.90
16513;DHT22;8369;48.030;11.598;2023-03-11T02:56:49;2.50;99.90
16513;DHT22;8369;48.030;11.598;2023-03-11T02:59:18;2.50;99.90
16513;DHT22;8369;48.030;11.598;2023-03-11T03:01:47;2.60;99.90
16513;DHT22;8369;48.030;11.598;2023-03-11T03:04:19;2.50;99.90
16513;DHT22;8369;48.030;11.598;2023-03-11T03:07:02;2.50;99.90
16513;DHT22;8369;48.030;11.598;2023-03-11T03:09:37;2.50;99.90
16513;DHT22;8369;48.030;11.598;2023-03-11T03:12:03;2.40;99.90
16513;DHT22;8369;48.030;11.598;2023-03-11T03:14:35;2.40;99.90
16513;DHT22;8369;48.030;11.598;2023-03-11T03:17:12;2.40;99.90
16513;DHT22;8369;48.030;11.598;2023-03-11T03:19:43;2.30;99.90
16513;DHT22;8369;48.030;11.598;2023-03-11T03:22:09;2.40;99.90
16513;DHT22;8369;48.030;11.598;2023-03-11T03:24:35;2.30;99.90
16513;DHT22;8369;48.030;11.598;2023-03-11T03:27:01;2.30;99.90
16513;DHT22;8369;48.030;11.598;2023-03-11T03:29:30;2.30;99.90
16513;DHT22;8369;48.030;11.598;2023-03-11T03:32:03;2.20;99.90
16513;DHT22;8369;48.030;11.598;2023-03-11T03:34:29;2.20;99.90
16513;DHT22;8369;48.030;11.598;2023-03-11T03:36:55;2.30;99.90
16513;DHT22;8369;48.030;11.598;2023-03-11T03:39:24;2.20;99.90
16513;DHT22;8369;48.030;11.598;2023-03-11T03:41:50;2.20;99.90
16513;DHT22;8369;48.030;11.598;2023-03-11T03:44:18;2.20;99.90
16513;DHT22;8369;48.030;11.598;2023-03-11T03:46:50;2.20;99.90
16513;DHT22;8369;48.030;11.598;2023-03-11T03:49:18;2.10;99.90
16513;DHT22;8369;48.030;11.598;2023-03-11T03:51:53;2.10;99.90
16513;DHT22;8369;48.030;11.598;2023-03-11T03:54:24;2.10;99.90
16513;DHT22;8369;48.030;11.598;2023-03-11T03:56:50;1.90;99.90
16513;DHT22;8369;48.030;11.598;2023-03-11T03:59:20;2.00;99.90
16513;DHT22;8369;48.030;11.598;2023-03-11T04:02:01;2.00;99.90
16513;DHT22;8369;48.030;11.598;2023-03-11T04:04:30;1.90;99.90
16513;DHT22;8369;48.030;11.598;2023-03-11T04:06:59;1.90;99.90
16513;DHT22;8369;48.030;11.598;2023-03-11T04:09:37;1.90;99.90
16513;DHT22;8369;48.030;11.598;2023-03-11T04:12:19;1.90;99.90
16513;DHT22;8369;48.030;11.598;2023-03-11T04:14:51;2.00;99.90
16513;DHT22;8369;48.030;11.598;2023-03-11T04:17:17;2.00;99.90
16513;DHT22;8369;48.030;11.598;2023-03-11T04:22:46;2.00;99.90
16513;DHT22;8369;48.030;11.598;2023-03-11T04:25:18;2.00;99.90
16513;DHT22;8369;48.030;11.598;2023-03-11T04:27:44;2.00;99.90
16513;DHT22;8369;48.030;11.598;2023-03-11T04:30:21;1.90;99.90
16513;DHT22;8369;48.030;11.598;2023-03-11T04:33:05;1.90;99.90
16513;DHT22;8369;48.030;11.598;2023-03-11T04:35:36;1.90;99.90
16513;DHT22;8369;48.030;11.598;2023-03-11T04:38:24;1.90;99.90
16513;DHT22;8369;48.030;11.598;2023-03-11T04:41:01;1.80;99.90
16513;DHT22;8369;48.030;11.598;2023-03-11T04:43:27;1.80;99.90
16513;DHT22;8369;48.030;11.598;2023-03-11T04:46:29;1.80;99.90
16513;DHT22;8369;48.030;11.598;2023-03-11T04:48:55;1.80;99.90
16513;DHT22;8369;48.030;11.598;2023-03-11T04:51:24;1.80;99.90
16513;DHT22;8369;48.030;11.598;2023-03-11T04:53:55;1.80;99.90
16513;DHT22;8369;48.030;11.598;2023-03-11T04:56:30;1.90;99.90
16513;DHT22;8369;48.030;11.598;2023-03-11T04:58:59;1.90;99.90
16513;DHT22;8369;48.030;11.598;2023-03-11T05:01:24;1.90;99.90
16513;DHT22;8369;48.030;11.598;2023-03-11T05:03:50;1.90;99.90
16513;DHT22;8369;48.030;11.598;2023-03-11T05:06:16;1.90;99.90
16513;DHT22;8369;48.030;11.598;2023-03-11T05:08:45;1.90;99.90
16513;DHT22;8369;48.030;11.598;2023-03-11T05:11:19;1.90;99.90
16513;DHT22;8369;48.030;11.598;2023-03-11T05:13:58;1.90;99.90
16513;DHT22;8369;48.030;11.598;2023-03-11T05:16:26;1.90;99.90
16513;DHT22;8369;48.030;11.598;2023-03-11T05:19:07;1.80;99.90
16513;DHT22;8369;48.030;11.598;2023-03-11T05:21:55;1.80;99.90
16513;DHT22;8369;48.030;11.598;2023-03-11T05:24:21;1.80;99.90
16513;DHT22;8369;48.030;11.598;2023-03-11T05:26:47;1.80;99.90
16513;DHT22;8369;48.030;11.598;2023-03-11T05:29:18;1.90;99.90
16513;DHT22;8369;48.030;11.598;2023-03-11T05:32:11;1.80;99.90
16513;DHT22;8369;48.030;11.598;2023-03-11T05:34:37;1.80;99.90
16513;DHT22;8369;48.030;11.598;2023-03-11T05:37:08;1.80;99.90
16513;DHT22;8369;48.030;11.598;2023-03-11T05:39:34;1.90;99.90
16513;DHT22;8369;48.030;11.598;2023-03-11T05:42:08;1.90;99.90
16513;DHT22;8369;48.030;11.598;2023-03-11T05:44:46;1.90;99.90
16513;DHT22;8369;48.030;11.598;2023-03-11T05:47:28;1.80;99.90
16513;DHT22;8369;48.030;11.598;2023-03-11T05:49:56;1.90;99.90
16513;DHT22;8369;48.030;11.598;2023-03-11T05:52:26;1.80;99.90
16513;DHT22;8369;48.030;11.598;2023-03-11T05:55:38;1.80;99.90
16513;DHT22;8369;48.030;11.598;2023-03-11T05:58:11;1.80;99.90
16513;DHT22;8369;48.030;11.598;2023-03-11T06:00:37;1.80;99.90
16513;DHT22;8369;48.030;11.598;2023-03-11T06:03:11;1.80;99.90
16513;DHT22;8369;48.030;11.598;2023-03-11T06:05:46;1.80;99.90
16513;DHT22;8369;48.030;11.598;2023-03-11T06:08:18;1.80;99.90
16513;DHT22;8369;48.030;11.598;2023-03-11T06:11:05;1.80;99.90
16513;DHT22;8369;48.030;11.598;2023-03-11T06:13:42;1.90;99.90
16513;DHT22;8369;48.030;11.598;2023-03-11T06:16:12;1.90;99.90
16513;DHT22;8369;48.030;11.598;2023-03-11T06:18:41;2.00;99.90
16513;DHT22;8369;48.030;11.598;2023-03-11T06:21:23;2.00;99.90
16513;DHT22;8369;48.030;11.598;2023-03-11T06:23:51;2.00;99.90
16513;DHT22;8369;48.030;11.598;2023-03-11T06:26:21;2.00;99.90
16513;DHT22;8369;48.030;11.598;2023-03-11T06:28:49;1.90;99.90
16513;DHT22;8369;48.030;11.598;2023-03-11T06:31:28;1.90;99.90
16513;DHT22;8369;48.030;11.598;2023-03-11T06:33:54;1.90;99.90
16513;DHT22;8369;48.030;11.598;2023-03-11T06:36:34;2.00;99.90
16513;DHT22;8369;48.030;11.598;2023-03-11T06:39:03;2.00;99.90
16513;DHT22;8369;48.030;11.598;2023-03-11T06:41:33;1.90;99.90
16513;DHT22;8369;48.030;11.598;2023-03-11T06:47:01;1.90;99.90
16513;DHT22;8369;48.030;11.598;2023-03-11T06:49:30;1.90;99.90
16513;DHT22;8369;48.030;11.598;2023-03-11T06:52:26;2.00;99.90
16513;DHT22;8369;48.030;11.598;2023-03-11T06:54:59;2.10;99.90
16513;DHT22;8369;48.030;11.598;2023-03-11T06:57:25;2.10;99.90
16513;DHT22;8369;48.030;11.598;2023-03-11T06:59:52;2.10;99.90
16513;DHT22;8369;48.030;11.598;2023-03-11T07:02:21;2.10;99.90
16513;DHT22;8369;48.030;11.598;2023-03-11T07:04:50;2.30;99.90
16513;DHT22;8369;48.030;11.598;2023-03-11T07:07:16;2.30;99.90
16513;DHT22;8369;48.030;11.598;2023-03-11T07:09:48;2.20;99.90
16513;DHT22;8369;48.030;11.598;2023-03-11T07:12:14;2.20;99.90
16513;DHT22;8369;48.030;11.598;2023-03-11T07:14:39;2.10;99.90
16513;DHT22;8369;48.030;11.598;2023-03-11T07:17:05;2.10;99.90
16513;DHT22;8369;48.030;11.598;2023-03-11T07:19:33;2.10;99.90
16513;DHT22;8369;48.030;11.598;2023-03-11T07:21:59;2.10;99.90
16513;DHT22;8369;48.030;11.598;2023-03-11T07:24:24;2.10;99.90
16513;DHT22;8369;48.030;11.598;2023-03-11T07:26:50;2.10;99.90
16513;DHT22;8369;48.030;11.598;2023-03-11T07:29:16;2.10;99.90
16513;DHT22;8369;48.030;11.598;2023-03-11T07:31:42;2.20;99.90
16513;DHT22;8369;48.030;11.598;2023-03-11T07:34:13;2.30;99.90
16513;DHT22;8369;48.030;11.598;2023-03-11T07:36:40;2.40;99.90
16513;DHT22;8369;48.030;11.598;2023-03-11T07:39:15;2.50;99.90
16513;DHT22;8369;48.030;11.598;2023-03-11T07:41:42;2.60;99.90
16513;DHT22;8369;48.030;11.598;2023-03-11T07:44:11;2.60;99.90
16513;DHT22;8369;48.030;11.598;2023-03-11T07:46:37;2.60;99.90
16513;DHT22;8369;48.030;11.598;2023-03-11T07:49:06;2.70;99.90
16513;DHT22;8369;48.030;11.598;2023-03-11T07:51:34;2.80;99.90
16513;DHT22;8369;48.030;11.598;2023-03-11T07:54:04;2.90;99.90
16513;DHT22;8369;48.030;11.598;2023-03-11T07:56:32;3.10;97.00
16513;DHT22;8369;48.030;11.598;2023-03-11T07:58:59;3.20;97.90
16513;DHT22;8369;48.030;11.598;2023-03-11T08:01:27;3.20;99.20
16513;DHT22;8369;48.030;11.598;2023-03-11T08:04:01;3.30;99.10
16513;DHT22;8369;48.030;11.598;2023-03-11T08:06:29;3.40;96.00
16513;DHT22;8369;48.030;11.598;2023-03-11T08:08:56;3.30;96.30
16513;DHT22;8369;48.030;11.598;2023-03-11T08:11:23;3.40;95.60
16513;DHT22;8369;48.030;11.598;2023-03-11T08:13:50;3.50;96.60
16513;DHT22;8369;48.030;11.598;2023-03-11T08:16:20;3.40;96.70
16513;DHT22;8369;48.030;11.598;2023-03-11T08:18:48;3.50;96.00
16513;DHT22;8369;48.030;11.598;2023-03-11T08:21:17;3.60;97.10
16513;DHT22;8369;48.030;11.598;2023-03-11T08:23:43;3.70;95.40
16513;DHT22;8369;48.030;11.598;2023-03-11T08:26:15;3.80;96.50
16513;DHT22;8369;48.030;11.598;2023-03-11T08:28:58;3.80;96.50
16513;DHT22;8369;48.030;11.598;2023-03-11T08:31:29;3.90;96.40
16513;DHT22;8369;48.030;11.598;2023-03-11T08:34:04;4.00;95.30
16513;DHT22;8369;48.030;11.598;2023-03-11T08:36:33;3.90;95.50
16513;DHT22;8369;48.030;11.598;2023-03-11T08:38:59;3.80;95.30
16513;DHT22;8369;48.030;11.598;2023-03-11T08:41:25;3.80;95.60
16513;DHT22;8369;48.030;11.598;2023-03-11T08:43:52;3.80;96.70
16513;DHT22;8369;48.030;11.598;2023-03-11T08:46:34;3.90;96.80
16513;DHT22;8369;48.030;11.598;2023-03-11T08:49:04;3.90;96.90
16513;DHT22;8369;48.030;11.598;2023-03-11T08:51:33;4.10;95.40
16513;DHT22;8369;48.030;11.598;2023-03-11T08:54:00;4.30;94.40
16513;DHT22;8369;48.030;11.598;2023-03-11T08:56:26;4.20;95.30
16513;DHT22;8369;48.030;11.598;2023-03-11T08:58:57;4.10;94.40
16513;DHT22;8369;48.030;11.598;2023-03-11T09:01:24;4.10;95.40
16513;DHT22;8369;48.030;11.598;2023-03-11T09:03:50;4.10;95.20
16513;DHT22;8369;48.030;11.598;2023-03-11T09:06:22;4.10;95.70
16513;DHT22;8369;48.030;11.598;2023-03-11T09:08:49;4.10;96.20
16513;DHT22;8369;48.030;11.598;2023-03-11T09:11:16;4.30;95.70
16513;DHT22;8369;48.030;11.598;2023-03-11T09:13:42;4.30;96.40
16513;DHT22;8369;48.030;11.598;2023-03-11T09:16:14;4.40;95.80
16513;DHT22;8369;48.030;11.598;2023-03-11T09:18:40;4.40;96.00
16513;DHT22;8369;48.030;11.598;2023-03-11T09:21:25;4.50;95.10
16513;DHT22;8369;48.030;11.598;2023-03-11T09:23:51;4.50;94.50
16513;DHT22;8369;48.030;11.598;2023-03-11T09:29:58;4.60;93.40
16513;DHT22;8369;48.030;11.598;2023-03-11T09:32:45;4.50;93.80
16513;DHT22;8369;48.030;11.598;2023-03-11T09:35:14;4.60;93.70
16513;DHT22;8369;48.030;11.598;2023-03-11T09:41:24;4.70;94.40
16513;DHT22;8369;48.030;11.598;2023-03-11T09:55:51;4.50;92.30
16513;DHT22;8369;48.030;11.598;2023-03-11T10:01:02;4.70;91.70
16513;DHT22;8369;48.030;11.598;2023-03-11T10:03:35;4.80;92.00
16513;DHT22;8369;48.030;11.598;2023-03-11T10:06:28;5.00;90.10
16513;DHT22;8369;48.030;11.598;2023-03-11T10:26:26;5.40;97.10
16513;DHT22;8369;48.030;11.598;2023-03-11T10:34:29;5.40;86.80
16513;DHT22;8369;48.030;11.598;2023-03-11T10:37:10;5.50;83.60
16513;DHT22;8369;48.030;11.598;2023-03-11T10:39:38;5.50;85.90
16513;DHT22;8369;48.030;11.598;2023-03-11T10:42:11;5.60;85.60
16513;DHT22;8369;48.030;11.598;2023-03-11T10:44:39;5.70;86.90
16513;DHT22;8369;48.030;11.598;2023-03-11T10:47:21;5.60;87.10
16513;DHT22;8369;48.030;11.598;2023-03-11T10:49:50;5.80;85.30
16513;DHT22;8369;48.030;11.598;2023-03-11T10:52:20;5.80;87.70
16513;DHT22;8369;48.030;11.598;2023-03-11T10:54:51;5.80;85.70
16513;DHT22;8369;48.030;11.598;2023-03-11T10:57:30;5.80;83.60
16513;DHT22;8369;48.030;11.598;2023-03-11T10:59:59;5.80;86.90
16513;DHT22;8369;48.030;11.598;2023-03-11T11:02:29;5.90;84.70
16513;DHT22;8369;48.030;11.598;2023-03-11T11:05:20;5.90;82.20
16513;DHT22;8369;48.030;11.598;2023-03-11T11:08:13;5.90;84.40
16513;DHT22;8369;48.030;11.598;2023-03-11T11:10:55;6.00;85.30
16513;DHT22;8369;48.030;11.598;2023-03-11T11:13:25;6.00;83.10
16513;DHT22;8369;48.030;11.598;2023-03-11T11:18:41;6.10;85.10
16513;DHT22;8369;48.030;11.598;2023-03-11T11:21:27;6.40;83.10
16513;DHT22;8369;48.030;11.598;2023-03-11T11:24:26;6.30;80.30
16513;DHT22;8369;48.030;11.598;2023-03-11T11:29:36;6.40;78.80
16513;DHT22;8369;48.030;11.598;2023-03-11T11:32:31;6.30;79.40
16513;DHT22;8369;48.030;11.598;2023-03-11T11:35:08;6.10;79.60
16513;DHT22;8369;48.030;11.598;2023-03-11T11:37:37;6.00;80.50
16513;DHT22;8369;48.030;11.598;2023-03-11T11:40:24;6.00;80.20
16513;DHT22;8369;48.030;11.598;2023-03-11T11:42:59;6.10;82.10
16513;DHT22;8369;48.030;11.598;2023-03-11T11:45:44;6.10;79.40
16513;DHT22;8369;48.030;11.598;2023-03-11T11:50:43;6.30;80.60
16513;DHT22;8369;48.030;11.598;2023-03-11T11:53:12;6.40;83.30
16513;DHT22;8369;48.030;11.598;2023-03-11T11:55:45;6.40;81.40
16513;DHT22;8369;48.030;11.598;2023-03-11T11:58:12;6.50;78.50
16513;DHT22;8369;48.030;11.598;2023-03-11T12:05:58;6.40;78.20
16513;DHT22;8369;48.030;11.598;2023-03-11T12:11:06;6.50;79.00
16513;DHT22;8369;48.030;11.598;2023-03-11T12:26:53;6.70;77.40
16513;DHT22;8369;48.030;11.598;2023-03-11T12:29:27;6.70;79.00
16513;DHT22;8369;48.030;11.598;2023-03-11T12:31:59;6.70;77.30
16513;DHT22;8369;48.030;11.598;2023-03-11T12:34:27;6.70;74.40
16513;DHT22;8369;48.030;11.598;2023-03-11T12:36:59;6.70;71.20
16513;DHT22;8369;48.030;11.598;2023-03-11T12:39:31;6.70;73.30
16513;DHT22;8369;48.030;11.598;2023-03-11T12:44:37;6.80;79.00
16513;DHT22;8369;48.030;11.598;2023-03-11T12:49:46;6.80;77.00
16513;DHT22;8369;48.030;11.598;2023-03-11T12:52:16;6.80;78.40
16513;DHT22;8369;48.030;11.598;2023-03-11T12:54:47;7.00;79.10
16513;DHT22;8369;48.030;11.598;2023-03-11T13:02:55;6.90;75.30
16513;DHT22;8369;48.030;11.598;2023-03-11T13:07:59;7.10;75.50
16513;DHT22;8369;48.030;11.598;2023-03-11T13:10:36;7.00;73.90
16513;DHT22;8369;48.030;11.598;2023-03-11T13:15:54;7.00;74.40
16513;DHT22;8369;48.030;11.598;2023-03-11T13:18:30;7.10;73.20
16513;DHT22;8369;48.030;11.598;2023-03-11T13:21:01;7.00;70.00
16513;DHT22;8369;48.030;11.598;2023-03-11T13:42:25;6.70;76.40
16513;DHT22;8369;48.030;11.598;2023-03-11T13:44:52;6.60;76.10
16513;DHT22;8369;48.030;11.598;2023-03-11T13:47:18;6.40;73.60
16513;DHT22;8369;48.030;11.598;2023-03-11T13:50:04;6.50;77.60
16513;DHT22;8369;48.030;11.598;2023-03-11T13:52:42;6.50;72.40
16513;DHT22;8369;48.030;11.598;2023-03-11T13:55:20;6.40;70.70
16513;DHT22;8369;48.030;11.598;2023-03-11T13:57:54;6.40;72.90
16513;DHT22;8369;48.030;11.598;2023-03-11T14:00:28;6.40;75.50
16513;DHT22;8369;48.030;11.598;2023-03-11T14:03:02;6.40;77.00
16513;DHT22;8369;48.030;11.598;2023-03-11T14:05:34;6.20;76.50
16513;DHT22;8369;48.030;11.598;2023-03-11T14:08:21;6.20;77.60
16513;DHT22;8369;48.030;11.598;2023-03-11T14:10:59;6.10;76.40
16513;DHT22;8369;48.030;11.598;2023-03-11T14:13:29;6.10;76.40
16513;DHT22;8369;48.030;11.598;2023-03-11T14:18:42;6.20;77.40
16513;DHT22;8369;48.030;11.598;2023-03-11T14:21:20;6.30;76.70
16513;DHT22;8369;48.030;11.598;2023-03-11T14:23:51;6.40;77.10
16513;DHT22;8369;48.030;11.598;2023-03-11T14:26:23;6.40;76.40
16513;DHT22;8369;48.030;11.598;2023-03-11T14:28:53;6.50;77.60
16513;DHT22;8369;48.030;11.598;2023-03-11T14:31:35;6.50;79.30
16513;DHT22;8369;48.030;11.598;2023-03-11T14:34:15;6.50;78.70
16513;DHT22;8369;48.030;11.598;2023-03-11T14:36:59;6.60;78.10
16513;DHT22;8369;48.030;11.598;2023-03-11T14:42:17;6.50;77.00
16513;DHT22;8369;48.030;11.598;2023-03-11T14:44:58;6.50;77.90
16513;DHT22;8369;48.030;11.598;2023-03-11T14:47:39;6.50;79.60
16513;DHT22;8369;48.030;11.598;2023-03-11T14:50:15;6.50;80.20
16513;DHT22;8369;48.030;11.598;2023-03-11T14:53:24;6.50;77.90
16513;DHT22;8369;48.030;11.598;2023-03-11T14:58:33;6.30;79.00
16513;DHT22;8369;48.030;11.598;2023-03-11T15:03:46;6.20;79.30
16513;DHT22;8369;48.030;11.598;2023-03-11T15:06:22;6.20;80.20
16513;DHT22;8369;48.030;11.598;2023-03-11T15:11:22;6.20;80.20
16513;DHT22;8369;48.030;11.598;2023-03-11T15:13:53;6.30;83.10
16513;DHT22;8369;48.030;11.598;2023-03-11T15:16:32;6.20;81.80
16513;DHT22;8369;48.030;11.598;2023-03-11T15:21:54;6.20;80.50
16513;DHT22;8369;48.030;11.598;2023-03-11T15:24:25;6.10;79.60
16513;DHT22;8369;48.030;11.598;2023-03-11T15:29:19;6.10;80.60
16513;DHT22;8369;48.030;11.598;2023-03-11T15:31:47;6.00;80.80
16513;DHT22;8369;48.030;11.598;2023-03-11T15:47:21;5.90;80.20
16513;DHT22;8369;48.030;11.598;2023-03-11T15:49:48;5.70;81.00
16513;DHT22;8369;48.030;11.598;2023-03-11T15:52:14;5.60;82.80
16513;DHT22;8369;48.030;11.598;2023-03-11T15:54:40;5.50;83.10
16513;DHT22;8369;48.030;11.598;2023-03-11T15:57:14;5.50;83.40
16513;DHT22;8369;48.030;11.598;2023-03-11T15:59:41;5.40;84.40
16513;DHT22;8369;48.030;11.598;2023-03-11T16:02:28;5.30;85.60
16513;DHT22;8369;48.030;11.598;2023-03-11T16:04:55;5.20;85.30
16513;DHT22;8369;48.030;11.598;2023-03-11T16:07:22;5.20;87.60
16513;DHT22;8369;48.030;11.598;2023-03-11T16:09:48;5.10;86.60
16513;DHT22;8369;48.030;11.598;2023-03-11T16:12:16;5.10;84.10
16513;DHT22;8369;48.030;11.598;2023-03-11T16:14:43;5.00;85.90
16513;DHT22;8369;48.030;11.598;2023-03-11T16:17:09;5.00;86.50
16513;DHT22;8369;48.030;11.598;2023-03-11T16:19:41;5.00;87.10
16513;DHT22;8369;48.030;11.598;2023-03-11T16:22:20;4.90;87.10
16513;DHT22;8369;48.030;11.598;2023-03-11T16:24:50;4.90;87.60
16513;DHT22;8369;48.030;11.598;2023-03-11T16:27:17;4.90;87.20
16513;DHT22;8369;48.030;11.598;2023-03-11T16:29:45;4.90;87.10
16513;DHT22;8369;48.030;11.598;2023-03-11T16:32:12;4.90;86.80
16513;DHT22;8369;48.030;11.598;2023-03-11T16:34:38;4.80;86.90
16513;DHT22;8369;48.030;11.598;2023-03-11T16:37:06;4.80;87.70
16513;DHT22;8369;48.030;11.598;2023-03-11T16:39:32;4.70;87.40
16513;DHT22;8369;48.030;11.598;2023-03-11T16:41:59;4.70;88.00
16513;DHT22;8369;48.030;11.598;2023-03-11T16:44:25;4.70;88.80
16513;DHT22;8369;48.030;11.598;2023-03-11T16:46:51;4.60;90.10
16513;DHT22;8369;48.030;11.598;2023-03-11T16:49:16;4.50;91.20
16513;DHT22;8369;48.030;11.598;2023-03-11T16:51:42;4.50;91.70
16513;DHT22;8369;48.030;11.598;2023-03-11T16:54:08;4.50;91.20
16513;DHT22;8369;48.030;11.598;2023-03-11T16:56:35;4.40;90.90
16513;DHT22;8369;48.030;11.598;2023-03-11T16:59:01;4.40;91.80
16513;DHT22;8369;48.030;11.598;2023-03-11T17:01:27;4.40;91.40
16513;DHT22;8369;48.030;11.598;2023-03-11T17:03:53;4.30;93.00
16513;DHT22;8369;48.030;11.598;2023-03-11T17:06:23;4.30;93.00
16513;DHT22;8369;48.030;11.598;2023-03-11T17:08:49;4.30;92.30
16513;DHT22;8369;48.030;11.598;2023-03-11T17:11:19;4.20;93.20
16513;DHT22;8369;48.030;11.598;2023-03-11T17:13:45;4.20;93.30
16513;DHT22;8369;48.030;11.598;2023-03-11T17:16:11;4.10;93.70
16513;DHT22;8369;48.030;11.598;2023-03-11T17:18:37;4.00;93.90
16513;DHT22;8369;48.030;11.598;2023-03-11T17:21:08;4.00;94.00
16513;DHT22;8369;48.030;11.598;2023-03-11T17:23:35;4.00;94.10
16513;DHT22;8369;48.030;11.598;2023-03-11T17:26:01;4.00;93.50
16513;DHT22;8369;48.030;11.598;2023-03-11T17:28:27;3.90;93.60
16513;DHT22;8369;48.030;11.598;2023-03-11T17:30:52;3.90;94.20
16513;DHT22;8369;48.030;11.598;2023-03-11T17:33:18;3.80;95.20
16513;DHT22;8369;48.030;11.598;2023-03-11T17:35:44;3.80;94.90
16513;DHT22;8369;48.030;11.598;2023-03-11T17:38:11;3.80;95.40
16513;DHT22;8369;48.030;11.598;2023-03-11T17:40:39;3.80;95.60
16513;DHT22;8369;48.030;11.598;2023-03-11T17:43:05;3.70;96.00
16513;DHT22;8369;48.030;11.598;2023-03-11T17:45:30;3.70;97.00
16513;DHT22;8369;48.030;11.598;2023-03-11T17:47:56;3.70;97.00
16513;DHT22;8369;48.030;11.598;2023-03-11T17:50:22;3.70;97.00
16513;DHT22;8369;48.030;11.598;2023-03-11T17:52:48;3.70;97.40
16513;DHT22;8369;48.030;11.598;2023-03-11T17:55:14;3.70;97.70
16513;DHT22;8369;48.030;11.598;2023-03-11T17:57:39;3.70;96.00
16513;DHT22;8369;48.030;11.598;2023-03-11T18:00:06;3.70;95.70
16513;DHT22;8369;48.030;11.598;2023-03-11T18:02:32;3.70;95.90
16513;DHT22;8369;48.030;11.598;2023-03-11T18:04:58;3.70;95.90
16513;DHT22;8369;48.030;11.598;2023-03-11T18:07:24;3.60;95.60
16513;DHT22;8369;48.030;11.598;2023-03-11T18:09:53;3.60;97.10
16513;DHT22;8369;48.030;11.598;2023-03-11T18:12:19;3.60;96.80
16513;DHT22;8369;48.030;11.598;2023-03-11T18:14:45;3.60;97.40
16513;DHT22;8369;48.030;11.598;2023-03-11T18:17:11;3.60;96.80
16513;DHT22;8369;48.030;11.598;2023-03-11T18:19:37;3.60;97.50
16513;DHT22;8369;48.030;11.598;2023-03-11T18:22:03;3.60;97.60
16513;DHT22;8369;48.030;11.598;2023-03-11T18:24:29;3.60;95.70
16513;DHT22;8369;48.030;11.598;2023-03-11T18:26:54;3.60;96.00
16513;DHT22;8369;48.030;11.598;2023-03-11T18:29:20;3.60;95.70
16513;DHT22;8369;48.030;11.598;2023-03-11T18:31:46;3.50;95.60
16513;DHT22;8369;48.030;11.598;2023-03-11T18:34:12;3.50;96.40
16513;DHT22;8369;48.030;11.598;2023-03-11T18:36:40;3.60;97.50
16513;DHT22;8369;48.030;11.598;2023-03-11T18:39:06;3.50;96.20
16513;DHT22;8369;48.030;11.598;2023-03-11T18:41:35;3.50;96.20
16513;DHT22;8369;48.030;11.598;2023-03-11T18:44:02;3.50;96.90
16513;DHT22;8369;48.030;11.598;2023-03-11T18:46:29;3.50;97.10
16513;DHT22;8369;48.030;11.598;2023-03-11T18:49:00;3.50;97.10
16513;DHT22;8369;48.030;11.598;2023-03-11T18:51:29;3.50;97.20
16513;DHT22;8369;48.030;11.598;2023-03-11T18:53:55;3.50;98.10
16513;DHT22;8369;48.030;11.598;2023-03-11T18:56:21;3.50;97.90
16513;DHT22;8369;48.030;11.598;2023-03-11T18:58:47;3.40;98.10
16513;DHT22;8369;48.030;11.598;2023-03-11T19:01:16;3.40;99.00